Latest Weather Observations for McCluer Island

IDD60801

Issued at 5:01 pm CST Monday 8 February 2016 (issued every 30 minutes, with the page automatically refreshed every 10 minutes)

About weather observations | Map of weather stations | Latest weather observations for NT | Other Formats
Station Details ID: 014274 Name: MCCLUER ISLAND Lat: -11.05 Lon: 132.98 Height: 1.4 m
Data from the previous 72 hours. | See also: Recent months at McCluer Island
Date/Time
CST
Temp
°C
App
Temp
°C
Dew
Point
Rel
Hum
%
Delta-T
°C
Wind Press
QNH
hPa
Press
MSL
hPa
Rain
since 9 am
mm
Dir
 
Spd
km/h
Gust
km/h
Spd
kts
Gust
kts
08/05:00pm 31.7 35.8 25.8 71 4.2 NW 15 17 8 9 1006.2 - 0.0
08/04:30pm 31.9 35.8 26.0 71 4.2 NW 17 20 9 11 1006.1 - 0.0
08/04:00pm 31.9 35.9 26.2 72 4.1 NW 17 20 9 11 1006.0 - 0.0
08/03:30pm 32.2 36.1 26.0 70 4.4 NW 17 20 9 11 1006.3 - 0.0
08/03:00pm 32.5 37.5 26.6 71 4.3 WNW 13 17 7 9 1006.5 1006.5 0.0
08/02:30pm 32.8 37.1 26.6 70 4.5 NW 17 20 9 11 1007.1 - 0.0
08/02:00pm 32.2 36.3 26.3 71 4.2 NW 17 20 9 11 1007.3 - 0.0
08/01:30pm 32.5 35.9 25.3 66 5.1 NW 17 20 9 11 1007.7 - 0.0
08/01:00pm 32.1 35.6 24.9 65 5.1 NW 15 19 8 10 1008.0 - 0.0
08/12:30pm 32.4 36.1 25.2 66 5.1 WNW 15 19 8 10 1008.5 - 0.0
08/12:00pm 31.9 36.2 25.5 69 4.5 WNW 13 17 7 9 1008.9 1008.9 0.0
08/11:30am 31.8 36.0 25.4 69 4.5 WNW 13 15 7 8 1009.3 - 0.0
08/11:00am 31.6 36.8 25.7 71 4.2 WNW 9 13 5 7 1009.3 - 0.0
08/10:30am 31.3 36.3 25.4 71 4.2 E 9 15 5 8 1009.4 - 0.0
08/10:00am 30.9 35.8 25.3 72 4.0 WSW 9 13 5 7 1009.3 - 0.0
08/09:30am 30.8 35.4 25.4 73 3.8 W 11 15 6 8 1009.4 - 0.0
08/09:00am 30.4 34.9 25.2 74 3.7 W 11 13 6 7 1009.3 1009.3 0.0
08/08:30am 30.2 34.8 25.3 75 3.5 W 11 13 6 7 1009.2 - 0.0
08/08:00am 29.3 33.9 25.3 79 2.8 W 11 13 6 7 1009.1 - 0.0
08/07:00am 29.1 32.8 25.7 82 2.4 W 17 20 9 11 1008.6 - 0.0
08/06:30am 29.2 32.8 25.6 81 2.5 NW 17 20 9 11 1008.4 - 0.0
08/06:00am 29.2 32.8 25.6 81 2.5 WNW 17 20 9 11 1008.2 1008.2 0.0
08/05:30am 29.2 32.9 25.8 82 2.4 WNW 17 20 9 11 1007.8 - 0.0
08/05:00am 29.1 32.4 25.7 82 2.4 WNW 19 20 10 11 1007.7 - 0.0
08/04:30am 29.2 32.9 25.8 82 2.4 WNW 17 19 9 10 1007.8 - 0.0
08/04:00am 29.1 32.6 25.5 81 2.5 WNW 17 19 9 10 1007.7 - 0.0
08/03:30am 29.2 32.8 25.6 81 2.5 WNW 17 20 9 11 1007.8 - 0.0
08/03:00am 29.2 32.8 25.6 81 2.5 NW 17 19 9 10 1007.8 1007.8 0.0
08/02:30am 29.2 33.2 25.6 81 2.5 NW 15 17 8 9 1007.9 - 0.0
08/02:00am 29.3 33.2 26.1 83 2.3 NW 17 19 9 10 1008.1 - 0.0
08/01:30am 29.3 33.0 25.7 81 2.5 WNW 17 20 9 11 1008.3 - 0.0
08/01:00am 29.2 32.8 25.6 81 2.5 W 17 20 9 11 1008.6 - 0.0
08/12:30am 29.2 32.8 25.6 81 2.5 WNW 17 20 9 11 1008.7 - 0.0
08/12:00am 29.3 32.8 25.5 80 2.7 W 17 19 9 10 1009.1 1009.1 0.0
 
Date/Time
CST
Temp
°C
App
Temp
°C
Dew
Point
Rel
Hum
%
Delta-T
°C
Wind Press
QNH
hPa
Press
MSL
hPa
Rain
since 9 am
mm
Dir
 
Spd
km/h
Gust
km/h
Spd
kts
Gust
kts
07/11:30pm 29.5 33.6 25.7 80 2.7 W 15 19 8 10 1009.2 - 0.0
07/11:00pm 29.3 33.1 25.3 79 2.8 W 15 19 8 10 1009.2 - 0.0
07/10:30pm 29.4 32.9 25.4 79 2.8 W 17 19 9 10 1009.4 - 0.0
07/10:00pm 29.2 32.6 25.2 79 2.8 WNW 17 20 9 11 1008.9 - 0.0
07/09:30pm 29.3 33.1 25.9 82 2.4 WNW 17 20 9 11 1008.6 - 0.0
07/09:00pm 29.3 32.4 25.7 81 2.6 WNW 20 22 11 12 1008.5 1008.5 0.0
07/08:30pm 29.3 32.4 25.7 81 2.5 WNW 20 24 11 13 1008.1 - 0.0
07/08:00pm 29.4 33.0 25.6 80 2.7 WNW 17 20 9 11 1007.8 - 0.0
07/07:30pm 29.4 33.4 25.6 80 2.7 W 15 17 8 9 1007.6 - 0.0
07/07:00pm 29.5 33.0 25.5 79 2.8 WNW 17 20 9 11 1007.3 - 0.0
07/06:30pm 30.1 33.5 25.2 75 3.5 WNW 17 19 9 10 1006.9 - 0.0
07/06:00pm 30.7 34.2 25.5 74 3.7 W 17 20 9 11 1006.4 1006.4 0.0
07/05:30pm 30.7 33.7 24.6 70 4.3 W 17 19 9 10 1006.1 - 0.0
07/05:00pm 30.7 33.8 24.8 71 4.1 W 17 20 9 11 1005.7 - 0.0
07/04:30pm 31.5 35.4 25.4 70 4.3 W 15 17 8 9 1005.7 - 0.0
07/04:00pm 30.7 34.0 26.0 76 3.3 W 20 26 11 14 1005.7 - 0.0
07/03:30pm 31.4 35.3 26.0 73 3.9 NW 17 20 9 11 1005.7 - 0.0
07/03:00pm 31.9 36.0 25.7 69 4.4 NNW 15 17 8 9 1006.0 1006.0 0.0
07/02:30pm 32.0 36.0 25.6 69 4.5 NW 15 19 8 10 1006.4 - 0.0
07/02:00pm 32.1 36.0 25.4 67 4.7 NW 15 19 8 10 1006.8 - 0.0
07/01:30pm 31.7 36.0 25.5 69 4.4 NNW 13 17 7 9 1007.2 - 0.0
07/01:00pm 32.0 35.8 25.3 67 4.7 NNW 15 17 8 9 1007.5 - 0.0
07/12:30pm 32.0 36.2 25.3 67 4.7 NW 13 15 7 8 1007.7 - 0.0
07/12:00pm 31.7 35.7 25.1 68 4.7 NW 13 15 7 8 1008.0 1008.0 0.0
07/11:30am 31.3 35.0 25.2 70 4.3 NW 15 17 8 9 1008.5 - 0.0
07/11:00am 31.1 35.2 25.2 71 4.2 NW 13 15 7 8 1008.6 - 0.0
07/10:30am 31.2 35.9 25.5 71 4.0 NW 11 13 6 7 1008.7 - 0.0
07/10:00am 31.1 35.9 25.7 73 3.8 NW 11 13 6 7 1008.7 - 0.0
07/09:30am 30.9 36.0 26.2 76 3.4 NW 11 13 6 7 1008.5 - 0.0
07/09:00am 30.6 35.4 25.7 75 3.5 NW 11 13 6 7 1008.4 1008.4 0.2
07/08:30am 29.5 34.2 25.5 79 2.8 NW 11 13 6 7 1008.2 - 0.2
07/08:00am 29.3 33.9 25.3 79 2.8 NNE 11 15 6 8 1008.0 - 0.2
07/07:30am 29.2 33.9 25.6 81 2.5 NE 11 13 6 7 1007.6 - 0.2
07/07:00am 28.8 32.9 25.2 81 2.5 NW 13 17 7 9 1007.3 - 0.2
07/06:30am 28.5 32.5 25.1 82 2.4 NW 13 15 7 8 1007.2 - 0.2
07/06:00am 28.7 32.1 25.3 82 2.4 WNW 17 20 9 11 1007.1 1007.1 0.2
07/05:30am 28.7 32.8 25.7 84 2.1 WNW 15 17 8 9 1006.9 - 0.2
07/05:00am 28.7 32.2 25.5 83 2.3 NW 17 19 9 10 1006.5 - 0.2
07/04:30am 28.6 32.1 25.4 83 2.3 WNW 17 19 9 10 1006.5 - 0.2
07/04:00am 28.6 31.7 25.4 83 2.3 WNW 19 20 10 11 1006.2 - 0.2
07/03:30am 28.6 31.7 25.4 83 2.3 WNW 19 20 10 11 1006.2 - 0.2
07/03:00am 28.7 31.7 25.3 82 2.4 WNW 19 22 10 12 1006.2 1006.2 0.2
07/02:30am 28.5 31.5 25.3 83 2.2 WNW 19 20 10 11 1006.4 - 0.2
07/02:00am 28.5 31.5 25.3 83 2.2 W 19 20 10 11 1006.7 - 0.2
07/01:30am 28.6 31.6 25.2 82 2.4 WNW 19 20 10 11 1007.0 - 0.2
07/01:00am 28.6 31.6 24.6 79 2.8 WNW 17 20 9 11 1007.4 - 0.2
07/12:30am 28.6 31.2 24.6 79 2.8 WNW 19 20 10 11 1007.5 - 0.2
07/12:00am 28.6 31.4 25.0 81 2.5 WNW 19 20 10 11 1007.8 1007.8 0.2
 
Date/Time
CST
Temp
°C
App
Temp
°C
Dew
Point
Rel
Hum
%
Delta-T
°C
Wind Press
QNH
hPa
Press
MSL
hPa
Rain
since 9 am
mm
Dir
 
Spd
km/h
Gust
km/h
Spd
kts
Gust
kts
06/11:30pm 28.6 31.4 25.0 81 2.5 NW 19 20 10 11 1008.1 - 0.2
06/11:00pm 28.5 31.2 25.1 82 2.4 NW 20 24 11 13 1008.1 - 0.2
06/10:30pm 28.5 32.0 25.5 84 2.1 NW 17 20 9 11 1008.0 - 0.2
06/10:00pm 28.5 31.9 25.3 83 2.2 NW 17 19 9 10 1007.8 - 0.2
06/09:30pm 28.5 31.7 24.9 81 2.5 NW 17 19 9 10 1007.4 - 0.2
06/09:00pm 28.7 32.2 24.9 80 2.7 NW 15 17 8 9 1007.0 1007.0 0.2
06/08:30pm 28.8 32.4 24.4 77 3.1 NW 13 15 7 8 1006.8 - 0.2
06/08:00pm 29.1 32.7 24.4 76 3.3 W 13 15 7 8 1006.6 - 0.2
06/07:30pm 28.9 32.8 24.2 76 3.3 W 11 13 6 7 1006.4 - 0.2
06/07:00pm 29.3 32.4 24.2 74 3.5 W 15 20 8 11 1006.2 - 0.2
06/06:30pm 29.1 31.0 23.5 72 3.9 W 19 20 10 11 1005.8 - 0.2
06/06:00pm 29.5 32.9 24.6 75 3.4 W 15 19 8 10 1005.5 1005.5 0.2
06/05:30pm 29.8 32.7 24.4 73 3.8 WSW 17 20 9 11 1005.2 - 0.2
06/05:00pm 30.3 33.5 24.9 73 3.8 WSW 17 20 9 11 1004.9 - 0.2
06/04:30pm 30.3 32.9 24.0 69 4.4 SW 17 19 9 10 1004.8 - 0.2
06/04:00pm 30.4 33.1 25.0 73 3.8 SW 20 26 11 14 1005.0 - 0.2
06/03:30pm 30.8 33.2 25.2 72 3.9 SW 22 28 12 15 1005.3 - 0.2
06/03:00pm 30.1 32.1 24.5 72 3.9 SW 22 28 12 15 1005.6 1005.6 0.2
06/02:30pm 30.4 33.1 25.0 73 3.8 SSW 20 24 11 13 1005.9 - 0.2
06/02:00pm 30.0 32.9 24.4 72 3.9 SW 17 24 9 13 1006.2 - 0.2
06/01:30pm 29.7 31.4 24.1 72 3.9 WSW 22 26 12 14 1006.6 - 0.2
06/01:00pm 29.7 31.4 24.1 72 3.9 WSW 22 26 12 14 1007.0 - 0.2
06/12:30pm 29.0 29.8 23.2 71 4.0 WSW 24 30 13 16 1007.6 - 0.2
06/12:00pm 28.8 29.4 23.5 73 3.6 WSW 26 30 14 16 1007.7 1007.7 0.0
06/11:30am 29.0 30.6 23.9 74 3.5 WSW 22 26 12 14 1007.9 - 0.0
06/11:00am 28.8 29.9 23.7 74 3.5 WSW 24 30 13 16 1008.1 - 0.0
06/10:30am 28.1 28.4 23.0 74 3.5 SW 26 32 14 17 1008.2 - 0.0
06/10:00am 27.7 28.1 23.1 76 3.1 WSW 26 30 14 16 1008.4 - 0.0
06/09:30am 27.6 28.6 24.2 82 2.4 WSW 26 30 14 16 1008.5 - 0.0
06/09:00am 26.8 28.4 24.5 87 1.6 SSW 24 30 13 16 1008.5 1008.5 0.2
06/08:30am 27.1 29.1 25.1 89 1.4 SW 24 32 13 17 1008.3 - 0.2
06/08:00am 28.1 29.3 25.1 84 2.1 WSW 28 35 15 19 1007.7 - 0.0
06/07:30am 28.1 29.8 24.7 82 2.4 W 24 30 13 16 1007.5 - 0.0
06/07:00am 28.1 29.8 25.3 85 2.0 W 26 32 14 17 1007.1 - 0.0
06/06:30am 27.7 28.8 24.9 85 2.0 W 28 33 15 18 1007.0 - 0.0
06/06:00am 27.3 29.4 25.3 89 1.4 NW 24 28 13 15 1006.7 1006.7 0.0
06/05:30am 27.1 28.0 25.3 90 1.3 NW 30 35 16 19 1006.8 - 0.0
06/05:00am 26.3 26.2 24.2 88 1.4 W 32 39 17 21 1006.6 - 0.0
06/04:30am 28.0 29.5 25.0 84 2.1 NW 26 32 14 17 1006.4 - 0.0
06/04:00am 28.6 31.4 25.0 81 2.5 W 19 22 10 12 1006.4 - 0.0
06/03:30am 28.5 30.7 24.9 81 2.5 WSW 22 26 12 14 1006.1 - 0.0
06/03:00am 28.6 31.0 25.2 82 2.4 W 22 26 12 14 1006.2 1006.2 0.0
06/02:30am 28.9 31.0 25.3 81 2.5 W 24 28 13 15 1006.6 - 0.0
06/02:00am 28.8 29.9 25.0 80 2.7 WNW 28 32 15 17 1006.7 - 0.0
06/01:30am 28.8 30.2 24.8 79 2.8 W 26 32 14 17 1007.3 - 0.0
06/01:00am 28.7 30.2 24.9 80 2.7 W 26 32 14 17 1007.5 - 0.0
06/12:30am 28.2 30.5 25.6 86 1.8 WNW 24 28 13 15 1007.4 - 0.0
06/12:00am 28.1 29.7 25.7 87 1.7 WNW 28 32 15 17 1007.3 1007.3 0.0
 
Date/Time
CST
Temp
°C
App
Temp
°C
Dew
Point
Rel
Hum
%
Delta-T
°C
Wind Press
QNH
hPa
Press
MSL
hPa
Rain
since 9 am
mm
Dir
 
Spd
km/h
Gust
km/h
Spd
kts
Gust
kts
05/11:30pm 28.2 29.3 25.6 86 1.8 WNW 30 35 16 19 1007.4 - 0.0
05/11:00pm 28.4 29.7 25.8 86 1.8 WNW 30 35 16 19 1007.5 - 0.0
05/10:30pm 28.2 28.6 25.4 85 2.0 WNW 33 39 18 21 1007.8 - 0.0
05/10:00pm 27.9 27.1 25.3 86 1.8 NW 39 43 21 23 1007.8 - 0.0
05/09:30pm 28.4 28.1 26.0 87 1.7 NW 39 46 21 25 1007.9 - 0.0
05/09:00pm 29.1 29.9 25.1 79 2.8 WNW 30 35 16 19 1007.7 1007.7 0.0
05/08:30pm 29.0 30.4 25.4 81 2.5 WNW 28 32 15 17 1007.5 - 0.0
05/08:00pm 29.1 30.4 25.3 80 2.7 WNW 28 32 15 17 1007.0 - 0.0
05/07:30pm 29.1 30.7 25.1 79 2.8 W 26 30 14 16 1006.7 - 0.0
05/07:00pm 28.9 30.2 25.3 81 2.5 W 28 32 15 17 1006.3 - 0.0
05/06:30pm 28.9 30.6 25.9 84 2.1 W 28 33 15 18 1006.1 - 0.0
05/06:00pm 29.2 30.8 25.8 82 2.4 WNW 28 32 15 17 1005.5 1005.5 0.0
05/05:30pm 28.4 28.8 24.4 79 2.8 WNW 30 33 16 18 1005.2 - 0.0

Other Formats:

Comma delimited format used in spreadsheet applications
http://www.bom.gov.au/fwo/IDD60801/IDD60801.94135.axf

JavaScript Object Notation format (JSON) in row-major order
http://www.bom.gov.au/fwo/IDD60801/IDD60801.94135.json